Solana Beach, California
Current Conditions -  °F | °C
As of 2:55 AM on Saturday 20 Dec 2014 (Local Time) from KNKX Reporting Station
Scattered Clouds Scattered Clouds  
Wind Chill: 51°   Ceiling: Unl
Heat Index: 51°   Visibility: 9mi
Dew Point: 46°   Wind: 5mph
Humidity: 83%   Direction: 80°E
Pressure: 30.13"   Gusts: NA
Location:  32.98°N, 117.27°W
Report Text: KNKX 201055Z 08004KT 9SM SCT180 11/08 A3013 RMK AO2 SLP199 T01060078
Loading
Personal Weather Stations






























Interactive Weather Map New forecast layout! Learn more

10-Day Weather Forecast

Advertisements
Track Severe Weather on mobile